sensor_id;sensor_type;location;lat;lon;timestamp;pressure;altitude;pressure_sealevel;temperature;humidity
63306;BME280;50735;52.060;1.248;2022-11-20T00:01:51;100959.89;;;5.92;57.97
63306;BME280;50735;52.060;1.248;2022-11-20T00:04:18;100961.53;;;5.99;57.87
63306;BME280;50735;52.060;1.248;2022-11-20T00:06:46;100965.56;;;6.03;57.90
63306;BME280;50735;52.060;1.248;2022-11-20T00:09:13;100963.79;;;6.07;58.00
63306;BME280;50735;52.060;1.248;2022-11-20T00:11:39;100962.45;;;6.10;57.94
63306;BME280;50735;52.060;1.248;2022-11-20T00:14:06;100961.80;;;6.12;57.97
63306;BME280;50735;52.060;1.248;2022-11-20T00:16:33;100960.68;;;6.08;58.05
63306;BME280;50735;52.060;1.248;2022-11-20T00:19:00;100957.67;;;6.00;58.88
63306;BME280;50735;52.060;1.248;2022-11-20T00:21:28;100956.45;;;5.93;58.47
63306;BME280;50735;52.060;1.248;2022-11-20T00:23:56;100957.32;;;5.90;58.46
63306;BME280;50735;52.060;1.248;2022-11-20T00:26:26;100951.54;;;5.82;59.41
63306;BME280;50735;52.060;1.248;2022-11-20T00:28:55;100951.79;;;6.15;59.23
63306;BME280;50735;52.060;1.248;2022-11-20T00:31:22;100948.74;;;5.97;58.95
63306;BME280;50735;52.060;1.248;2022-11-20T00:33:50;100945.03;;;5.99;58.94
63306;BME280;50735;52.060;1.248;2022-11-20T00:36:18;100941.33;;;5.71;59.73
63306;BME280;50735;52.060;1.248;2022-11-20T00:38:46;100938.25;;;5.49;60.18
63306;BME280;50735;52.060;1.248;2022-11-20T00:41:15;100933.24;;;5.53;59.68
63306;BME280;50735;52.060;1.248;2022-11-20T00:43:42;100930.32;;;5.70;59.31
63306;BME280;50735;52.060;1.248;2022-11-20T00:46:10;100924.93;;;6.01;58.91
63306;BME280;50735;52.060;1.248;2022-11-20T00:48:39;100923.01;;;5.79;59.01
63306;BME280;50735;52.060;1.248;2022-11-20T00:51:07;100922.42;;;5.79;58.99
63306;BME280;50735;52.060;1.248;2022-11-20T00:53:34;100920.48;;;5.86;58.54
63306;BME280;50735;52.060;1.248;2022-11-20T00:56:03;100922.28;;;5.94;58.45
63306;BME280;50735;52.060;1.248;2022-11-20T00:58:32;100923.42;;;6.04;58.01
63306;BME280;50735;52.060;1.248;2022-11-20T01:01:00;100920.50;;;6.07;58.18
63306;BME280;50735;52.060;1.248;2022-11-20T01:03:30;100918.75;;;6.11;58.13
63306;BME280;50735;52.060;1.248;2022-11-20T01:06:00;100919.91;;;6.15;58.02
63306;BME280;50735;52.060;1.248;2022-11-20T01:08:29;100916.94;;;6.21;57.95
63306;BME280;50735;52.060;1.248;2022-11-20T01:10:59;100915.18;;;6.25;57.73
63306;BME280;50735;52.060;1.248;2022-11-20T01:13:26;100912.89;;;6.30;57.77
63306;BME280;50735;52.060;1.248;2022-11-20T01:15:54;100909.24;;;6.71;57.88
63306;BME280;50735;52.060;1.248;2022-11-20T01:18:21;100910.69;;;6.37;57.81
63306;BME280;50735;52.060;1.248;2022-11-20T01:20:47;100905.24;;;6.39;57.32
63306;BME280;50735;52.060;1.248;2022-11-20T01:23:14;100901.40;;;6.37;57.16
63306;BME280;50735;52.060;1.248;2022-11-20T01:25:41;100898.10;;;6.37;57.49
63306;BME280;50735;52.060;1.248;2022-11-20T01:28:07;100896.29;;;6.39;57.60
63306;BME280;50735;52.060;1.248;2022-11-20T01:30:35;100893.67;;;6.39;57.63
63306;BME280;50735;52.060;1.248;2022-11-20T01:33:02;100892.13;;;6.29;57.72
63306;BME280;50735;52.060;1.248;2022-11-20T01:35:29;100887.06;;;6.35;57.88
63306;BME280;50735;52.060;1.248;2022-11-20T01:37:56;100880.16;;;6.39;57.75
63306;BME280;50735;52.060;1.248;2022-11-20T01:40:22;100877.90;;;6.41;57.68
63306;BME280;50735;52.060;1.248;2022-11-20T01:45:56;100873.38;;;6.16;57.82
63306;BME280;50735;52.060;1.248;2022-11-20T01:48:26;100874.32;;;6.43;57.68
63306;BME280;50735;52.060;1.248;2022-11-20T01:50:57;100880.14;;;6.45;57.74
63306;BME280;50735;52.060;1.248;2022-11-20T01:53:27;100880.66;;;6.26;57.77
63306;BME280;50735;52.060;1.248;2022-11-20T01:55:58;100877.19;;;6.47;57.97
63306;BME280;50735;52.060;1.248;2022-11-20T01:58:29;100865.44;;;6.46;57.80
63306;BME280;50735;52.060;1.248;2022-11-20T02:00:57;100863.75;;;6.48;57.75
63306;BME280;50735;52.060;1.248;2022-11-20T02:03:26;100859.57;;;6.23;57.75
63306;BME280;50735;52.060;1.248;2022-11-20T02:05:57;100857.47;;;6.06;57.85
63306;BME280;50735;52.060;1.248;2022-11-20T02:08:28;100848.72;;;6.29;58.02
63306;BME280;50735;52.060;1.248;2022-11-20T02:10:55;100845.03;;;6.24;58.18
63306;BME280;50735;52.060;1.248;2022-11-20T02:13:22;100841.22;;;6.28;58.09
63306;BME280;50735;52.060;1.248;2022-11-20T02:15:49;100837.48;;;6.08;57.97
63306;BME280;50735;52.060;1.248;2022-11-20T02:18:19;100833.53;;;6.29;57.96
63306;BME280;50735;52.060;1.248;2022-11-20T02:20:48;100823.71;;;6.47;57.96
63306;BME280;50735;52.060;1.248;2022-11-20T02:23:21;100819.98;;;6.28;58.01
63306;BME280;50735;52.060;1.248;2022-11-20T02:25:51;100816.87;;;6.31;57.99
63306;BME280;50735;52.060;1.248;2022-11-20T02:28:21;100809.90;;;6.35;57.87
63306;BME280;50735;52.060;1.248;2022-11-20T02:30:48;100804.59;;;6.29;57.91
63306;BME280;50735;52.060;1.248;2022-11-20T02:33:15;100807.59;;;6.24;58.01
63306;BME280;50735;52.060;1.248;2022-11-20T02:35:44;100805.84;;;6.23;58.01
63306;BME280;50735;52.060;1.248;2022-11-20T02:38:11;100801.20;;;6.24;58.07
63306;BME280;50735;52.060;1.248;2022-11-20T02:40:39;100798.75;;;6.24;58.09
63306;BME280;50735;52.060;1.248;2022-11-20T02:43:07;100801.54;;;6.26;58.04
63306;BME280;50735;52.060;1.248;2022-11-20T02:45:34;100801.67;;;6.25;58.00
63306;BME280;50735;52.060;1.248;2022-11-20T02:48:01;100802.50;;;6.23;58.04
63306;BME280;50735;52.060;1.248;2022-11-20T02:50:27;100798.37;;;6.21;58.17
63306;BME280;50735;52.060;1.248;2022-11-20T02:52:55;100794.38;;;6.20;58.17
63306;BME280;50735;52.060;1.248;2022-11-20T02:55:21;100792.93;;;5.96;58.19
63306;BME280;50735;52.060;1.248;2022-11-20T02:57:48;100786.20;;;6.17;58.25
63306;BME280;50735;52.060;1.248;2022-11-20T03:00:16;100778.53;;;6.17;58.23
63306;BME280;50735;52.060;1.248;2022-11-20T03:02:43;100773.89;;;5.93;58.20
63306;BME280;50735;52.060;1.248;2022-11-20T03:05:10;100768.14;;;6.14;58.17
63306;BME280;50735;52.060;1.248;2022-11-20T03:07:37;100761.54;;;6.12;58.26
63306;BME280;50735;52.060;1.248;2022-11-20T03:10:05;100755.68;;;6.13;58.32
63306;BME280;50735;52.060;1.248;2022-11-20T03:12:32;100754.31;;;6.12;58.32
63306;BME280;50735;52.060;1.248;2022-11-20T03:14:58;100751.23;;;6.13;58.37
63306;BME280;50735;52.060;1.248;2022-11-20T03:17:25;100745.84;;;6.33;58.31
63306;BME280;50735;52.060;1.248;2022-11-20T03:19:52;100745.09;;;6.15;58.31
63306;BME280;50735;52.060;1.248;2022-11-20T03:22:19;100747.45;;;6.34;58.34
63306;BME280;50735;52.060;1.248;2022-11-20T03:24:46;100747.33;;;6.17;58.27
63306;BME280;50735;52.060;1.248;2022-11-20T03:27:14;100740.79;;;6.19;58.14
63306;BME280;50735;52.060;1.248;2022-11-20T03:29:40;100735.89;;;6.18;58.27
63306;BME280;50735;52.060;1.248;2022-11-20T03:32:07;100734.16;;;5.96;58.35
63306;BME280;50735;52.060;1.248;2022-11-20T03:34:33;100731.56;;;6.20;58.35
63306;BME280;50735;52.060;1.248;2022-11-20T03:37:00;100728.71;;;6.24;58.28
63306;BME280;50735;52.060;1.248;2022-11-20T03:39:27;100728.38;;;6.25;58.29
63306;BME280;50735;52.060;1.248;2022-11-20T03:41:54;100728.69;;;6.24;58.23
63306;BME280;50735;52.060;1.248;2022-11-20T03:44:22;100726.15;;;6.24;58.26
63306;BME280;50735;52.060;1.248;2022-11-20T03:46:48;100720.07;;;6.25;58.22
63306;BME280;50735;52.060;1.248;2022-11-20T03:49:15;100712.04;;;6.23;58.23
63306;BME280;50735;52.060;1.248;2022-11-20T03:51:41;100709.17;;;5.99;58.45
63306;BME280;50735;52.060;1.248;2022-11-20T03:54:08;100699.30;;;6.22;58.50
63306;BME280;50735;52.060;1.248;2022-11-20T03:56:37;100695.32;;;6.02;58.41
63306;BME280;50735;52.060;1.248;2022-11-20T03:59:05;100694.52;;;6.25;58.33
63306;BME280;50735;52.060;1.248;2022-11-20T04:01:34;100697.13;;;6.26;58.33
63306;BME280;50735;52.060;1.248;2022-11-20T04:04:02;100694.00;;;6.27;58.28
63306;BME280;50735;52.060;1.248;2022-11-20T04:06:32;100691.35;;;6.04;58.41
63306;BME280;50735;52.060;1.248;2022-11-20T04:09:00;100684.16;;;6.26;58.46
63306;BME280;50735;52.060;1.248;2022-11-20T04:11:28;100682.37;;;6.27;58.48
63306;BME280;50735;52.060;1.248;2022-11-20T04:13:58;100679.14;;;6.07;58.53
63306;BME280;50735;52.060;1.248;2022-11-20T04:16:28;100681.52;;;6.30;58.47
63306;BME280;50735;52.060;1.248;2022-11-20T04:18:57;100682.92;;;6.06;58.55
63306;BME280;50735;52.060;1.248;2022-11-20T04:21:25;100680.97;;;6.28;58.59
63306;BME280;50735;52.060;1.248;2022-11-20T04:23:53;100680.41;;;6.28;58.67
63306;BME280;50735;52.060;1.248;2022-11-20T04:26:21;100678.38;;;6.29;58.74
63306;BME280;50735;52.060;1.248;2022-11-20T04:28:48;100677.06;;;6.50;58.82
63306;BME280;50735;52.060;1.248;2022-11-20T04:31:17;100672.28;;;6.36;58.87
63306;BME280;50735;52.060;1.248;2022-11-20T04:33:44;100668.37;;;6.18;58.83
63306;BME280;50735;52.060;1.248;2022-11-20T04:36:13;100666.17;;;6.42;58.84
63306;BME280;50735;52.060;1.248;2022-11-20T04:38:41;100666.03;;;6.24;58.76
63306;BME280;50735;52.060;1.248;2022-11-20T04:41:14;100665.48;;;6.25;58.79
63306;BME280;50735;52.060;1.248;2022-11-20T04:43:41;100666.42;;;6.49;58.77
63306;BME280;50735;52.060;1.248;2022-11-20T04:46:12;100661.43;;;6.12;58.75
63306;BME280;50735;52.060;1.248;2022-11-20T04:48:39;100658.37;;;6.56;58.72
63306;BME280;50735;52.060;1.248;2022-11-20T04:51:05;100657.94;;;6.56;58.84
63306;BME280;50735;52.060;1.248;2022-11-20T04:53:32;100649.76;;;6.38;58.77
63306;BME280;50735;52.060;1.248;2022-11-20T04:56:00;100644.00;;;6.63;58.64
63306;BME280;50735;52.060;1.248;2022-11-20T04:58:28;100635.89;;;6.44;58.60
63306;BME280;50735;52.060;1.248;2022-11-20T05:01:01;100633.22;;;6.64;58.62
63306;BME280;50735;52.060;1.248;2022-11-20T05:03:28;100630.29;;;6.65;58.61
63306;BME280;50735;52.060;1.248;2022-11-20T05:05:55;100630.32;;;6.63;58.71
63306;BME280;50735;52.060;1.248;2022-11-20T05:08:21;100627.70;;;6.64;58.65
63306;BME280;50735;52.060;1.248;2022-11-20T05:10:48;100624.19;;;6.66;58.81
63306;BME280;50735;52.060;1.248;2022-11-20T05:13:15;100624.98;;;6.46;58.88
63306;BME280;50735;52.060;1.248;2022-11-20T05:15:42;100624.15;;;6.69;59.20
63306;BME280;50735;52.060;1.248;2022-11-20T05:18:10;100628.86;;;6.45;59.05
63306;BME280;50735;52.060;1.248;2022-11-20T05:20:37;100622.96;;;6.48;59.08
63306;BME280;50735;52.060;1.248;2022-11-20T05:23:04;100623.01;;;6.68;59.29
63306;BME280;50735;52.060;1.248;2022-11-20T05:25:30;100621.12;;;6.68;59.26
63306;BME280;50735;52.060;1.248;2022-11-20T05:27:57;100623.96;;;6.45;59.45
63306;BME280;50735;52.060;1.248;2022-11-20T05:30:24;100630.93;;;6.61;59.56
63306;BME280;50735;52.060;1.248;2022-11-20T05:32:51;100629.90;;;6.64;59.59
63306;BME280;50735;52.060;1.248;2022-11-20T05:35:18;100629.45;;;6.14;60.25
63306;BME280;50735;52.060;1.248;2022-11-20T05:37:45;100629.10;;;6.28;60.14
63306;BME280;50735;52.060;1.248;2022-11-20T05:40:13;100625.54;;;6.30;60.11
63306;BME280;50735;52.060;1.248;2022-11-20T05:42:40;100621.20;;;6.09;61.49
63306;BME280;50735;52.060;1.248;2022-11-20T05:45:07;100617.63;;;6.44;60.69
63306;BME280;50735;52.060;1.248;2022-11-20T05:47:34;100612.11;;;6.35;60.54
63306;BME280;50735;52.060;1.248;2022-11-20T05:50:01;100606.68;;;6.69;60.51
63306;BME280;50735;52.060;1.248;2022-11-20T05:52:29;100602.09;;;6.77;60.42
63306;BME280;50735;52.060;1.248;2022-11-20T05:54:56;100596.56;;;6.87;60.35
63306;BME280;50735;52.060;1.248;2022-11-20T05:57:24;100595.52;;;6.58;60.92
63306;BME280;50735;52.060;1.248;2022-11-20T05:59:51;100595.98;;;6.63;60.59
63306;BME280;50735;52.060;1.248;2022-11-20T06:02:18;100592.51;;;6.49;60.59
63306;BME280;50735;52.060;1.248;2022-11-20T06:04:45;100585.11;;;6.56;60.35
63306;BME280;50735;52.060;1.248;2022-11-20T06:07:12;100583.18;;;6.47;60.85
63306;BME280;50735;52.060;1.248;2022-11-20T06:09:39;100576.22;;;6.70;60.62
63306;BME280;50735;52.060;1.248;2022-11-20T06:12:06;100572.91;;;6.95;60.45
63306;BME280;50735;52.060;1.248;2022-11-20T06:14:33;100570.62;;;6.55;60.47
63306;BME280;50735;52.060;1.248;2022-11-20T06:17:00;100563.83;;;7.02;60.73
63306;BME280;50735;52.060;1.248;2022-11-20T06:19:27;100562.18;;;6.86;60.24
63306;BME280;50735;52.060;1.248;2022-11-20T06:21:53;100556.70;;;6.62;60.56
63306;BME280;50735;52.060;1.248;2022-11-20T06:24:20;100553.00;;;6.56;60.50
63306;BME280;50735;52.060;1.248;2022-11-20T06:26:46;100548.17;;;6.79;60.21
63306;BME280;50735;52.060;1.248;2022-11-20T06:29:13;100544.86;;;6.62;60.23
63306;BME280;50735;52.060;1.248;2022-11-20T06:31:40;100542.75;;;6.78;60.19
63306;BME280;50735;52.060;1.248;2022-11-20T06:34:07;100543.37;;;6.72;60.20
63306;BME280;50735;52.060;1.248;2022-11-20T06:36:34;100549.12;;;6.68;60.24
63306;BME280;50735;52.060;1.248;2022-11-20T06:39:02;100553.69;;;6.90;60.12
63306;BME280;50735;52.060;1.248;2022-11-20T06:41:29;100548.56;;;6.40;60.08
63306;BME280;50735;52.060;1.248;2022-11-20T06:43:55;100545.77;;;6.66;59.94
63306;BME280;50735;52.060;1.248;2022-11-20T06:46:22;100535.71;;;6.66;60.18
63306;BME280;50735;52.060;1.248;2022-11-20T06:48:49;100528.84;;;6.63;60.50
63306;BME280;50735;52.060;1.248;2022-11-20T06:51:17;100527.30;;;6.42;60.62
63306;BME280;50735;52.060;1.248;2022-11-20T06:53:44;100523.03;;;6.55;60.21
63306;BME280;50735;52.060;1.248;2022-11-20T06:56:11;100519.97;;;6.79;60.16
63306;BME280;50735;52.060;1.248;2022-11-20T06:58:38;100512.60;;;6.66;60.08
63306;BME280;50735;52.060;1.248;2022-11-20T07:01:07;100506.03;;;6.53;60.66
63306;BME280;50735;52.060;1.248;2022-11-20T07:03:35;100501.46;;;6.40;60.91
63306;BME280;50735;52.060;1.248;2022-11-20T07:06:02;100498.46;;;6.38;61.13
63306;BME280;50735;52.060;1.248;2022-11-20T07:08:29;100498.35;;;6.37;61.05
63306;BME280;50735;52.060;1.248;2022-11-20T07:10:57;100493.28;;;6.42;60.74
63306;BME280;50735;52.060;1.248;2022-11-20T07:13:24;100488.93;;;6.60;60.61
63306;BME280;50735;52.060;1.248;2022-11-20T07:15:51;100488.92;;;6.30;60.64
63306;BME280;50735;52.060;1.248;2022-11-20T07:18:17;100488.06;;;6.27;60.74
63306;BME280;50735;52.060;1.248;2022-11-20T07:20:44;100481.87;;;6.26;60.87
63306;BME280;50735;52.060;1.248;2022-11-20T07:23:11;100477.32;;;6.03;60.36
63306;BME280;50735;52.060;1.248;2022-11-20T07:25:37;100472.88;;;6.41;61.09
63306;BME280;50735;52.060;1.248;2022-11-20T07:28:04;100467.15;;;6.00;61.24
63306;BME280;50735;52.060;1.248;2022-11-20T07:30:31;100459.83;;;5.91;62.01
63306;BME280;50735;52.060;1.248;2022-11-20T07:32:58;100452.34;;;5.92;61.95
63306;BME280;50735;52.060;1.248;2022-11-20T07:35:25;100445.05;;;5.54;61.92
63306;BME280;50735;52.060;1.248;2022-11-20T07:37:52;100445.60;;;6.11;62.23
63306;BME280;50735;52.060;1.248;2022-11-20T07:40:19;100443.07;;;6.25;61.57
63306;BME280;50735;52.060;1.248;2022-11-20T07:42:49;100436.92;;;5.94;62.19
63306;BME280;50735;52.060;1.248;2022-11-20T07:45:16;100434.96;;;5.83;62.65
63306;BME280;50735;52.060;1.248;2022-11-20T07:47:42;100426.32;;;5.95;62.14
63306;BME280;50735;52.060;1.248;2022-11-20T07:50:09;100418.84;;;6.04;62.42
63306;BME280;50735;52.060;1.248;2022-11-20T07:52:37;100418.84;;;6.11;62.84
63306;BME280;50735;52.060;1.248;2022-11-20T07:55:04;100415.92;;;6.03;62.95
63306;BME280;50735;52.060;1.248;2022-11-20T07:57:31;100411.08;;;5.97;63.37
63306;BME280;50735;52.060;1.248;2022-11-20T07:59:57;100409.72;;;6.35;63.04
63306;BME280;50735;52.060;1.248;2022-11-20T08:02:24;100409.61;;;6.23;63.26
63306;BME280;50735;52.060;1.248;2022-11-20T08:04:51;100404.80;;;6.39;62.83
63306;BME280;50735;52.060;1.248;2022-11-20T08:07:18;100401.85;;;6.35;63.70
63306;BME280;50735;52.060;1.248;2022-11-20T08:09:44;100399.02;;;6.31;64.31
63306;BME280;50735;52.060;1.248;2022-11-20T08:12:17;100393.09;;;6.16;64.95
63306;BME280;50735;52.060;1.248;2022-11-20T08:14:45;100396.94;;;6.45;64.40
63306;BME280;50735;52.060;1.248;2022-11-20T08:17:11;100398.04;;;6.76;64.50
63306;BME280;50735;52.060;1.248;2022-11-20T08:19:38;100401.76;;;6.57;65.10
63306;BME280;50735;52.060;1.248;2022-11-20T08:22:05;100402.99;;;6.25;66.20
63306;BME280;50735;52.060;1.248;2022-11-20T08:24:31;100400.70;;;6.29;65.92
63306;BME280;50735;52.060;1.248;2022-11-20T08:26:59;100400.79;;;5.99;66.87
63306;BME280;50735;52.060;1.248;2022-11-20T08:29:26;100397.03;;;6.51;66.60
63306;BME280;50735;52.060;1.248;2022-11-20T08:31:53;100395.70;;;6.37;67.67
63306;BME280;50735;52.060;1.248;2022-11-20T08:34:20;100391.79;;;6.33;67.96
63306;BME280;50735;52.060;1.248;2022-11-20T08:36:47;100391.32;;;6.26;67.53
63306;BME280;50735;52.060;1.248;2022-11-20T08:39:14;100394.27;;;6.55;66.95
63306;BME280;50735;52.060;1.248;2022-11-20T08:41:41;100397.90;;;6.55;66.83
63306;BME280;50735;52.060;1.248;2022-11-20T08:44:08;100396.97;;;6.74;66.30
63306;BME280;50735;52.060;1.248;2022-11-20T08:46:36;100390.50;;;6.68;66.84
63306;BME280;50735;52.060;1.248;2022-11-20T08:49:04;100384.52;;;6.93;66.66
63306;BME280;50735;52.060;1.248;2022-11-20T08:51:30;100381.44;;;6.50;67.20
63306;BME280;50735;52.060;1.248;2022-11-20T08:53:57;100378.27;;;6.41;67.94
63306;BME280;50735;52.060;1.248;2022-11-20T08:56:24;100373.28;;;6.45;67.85
63306;BME280;50735;52.060;1.248;2022-11-20T08:58:51;100362.11;;;6.25;68.37
63306;BME280;50735;52.060;1.248;2022-11-20T09:01:18;100363.54;;;6.09;68.98
63306;BME280;50735;52.060;1.248;2022-11-20T09:03:45;100359.65;;;6.25;68.81
63306;BME280;50735;52.060;1.248;2022-11-20T09:06:13;100357.87;;;6.25;68.70
63306;BME280;50735;52.060;1.248;2022-11-20T09:08:40;100354.58;;;6.25;69.38
63306;BME280;50735;52.060;1.248;2022-11-20T09:11:07;100349.56;;;6.15;69.38
63306;BME280;50735;52.060;1.248;2022-11-20T09:13:35;100353.55;;;6.29;69.04
63306;BME280;50735;52.060;1.248;2022-11-20T09:16:05;100356.97;;;6.43;68.45
63306;BME280;50735;52.060;1.248;2022-11-20T09:18:34;100364.29;;;6.53;68.37
63306;BME280;50735;52.060;1.248;2022-11-20T09:21:02;100370.73;;;6.75;67.39
63306;BME280;50735;52.060;1.248;2022-11-20T09:23:32;100374.10;;;6.88;67.57
63306;BME280;50735;52.060;1.248;2022-11-20T09:26:02;100370.10;;;6.91;67.16
63306;BME280;50735;52.060;1.248;2022-11-20T09:28:29;100366.19;;;7.15;66.50
63306;BME280;50735;52.060;1.248;2022-11-20T09:30:56;100367.05;;;7.14;66.23
63306;BME280;50735;52.060;1.248;2022-11-20T09:33:23;100363.70;;;7.27;65.95
63306;BME280;50735;52.060;1.248;2022-11-20T09:35:49;100360.50;;;7.18;66.21
63306;BME280;50735;52.060;1.248;2022-11-20T09:38:16;100359.71;;;7.30;66.40
63306;BME280;50735;52.060;1.248;2022-11-20T09:40:46;100350.81;;;7.07;67.03
63306;BME280;50735;52.060;1.248;2022-11-20T09:43:18;100353.33;;;7.16;66.62
63306;BME280;50735;52.060;1.248;2022-11-20T09:45:56;100362.42;;;6.87;67.66
63306;BME280;50735;52.060;1.248;2022-11-20T09:48:40;100364.63;;;6.64;67.99
63306;BME280;50735;52.060;1.248;2022-11-20T09:51:17;100359.43;;;6.95;67.48
63306;BME280;50735;52.060;1.248;2022-11-20T09:53:55;100357.90;;;6.98;68.12
63306;BME280;50735;52.060;1.248;2022-11-20T09:56:26;100356.12;;;7.01;66.87
63306;BME280;50735;52.060;1.248;2022-11-20T09:58:59;100355.95;;;6.78;66.85
63306;BME280;50735;52.060;1.248;2022-11-20T10:01:30;100355.38;;;6.77;67.06
63306;BME280;50735;52.060;1.248;2022-11-20T10:04:01;100353.28;;;6.82;67.29
63306;BME280;50735;52.060;1.248;2022-11-20T10:06:31;100346.97;;;6.83;66.59
63306;BME280;50735;52.060;1.248;2022-11-20T10:09:06;100345.40;;;6.48;67.36
63306;BME280;50735;52.060;1.248;2022-11-20T10:11:47;100334.84;;;6.25;68.08
63306;BME280;50735;52.060;1.248;2022-11-20T10:14:24;100333.44;;;6.26;68.15
63306;BME280;50735;52.060;1.248;2022-11-20T10:17:00;100330.16;;;6.29;67.95
63306;BME280;50735;52.060;1.248;2022-11-20T10:19:40;100331.61;;;6.38;67.21
63306;BME280;50735;52.060;1.248;2022-11-20T10:22:15;100324.28;;;6.95;66.38
63306;BME280;50735;52.060;1.248;2022-11-20T10:24:53;100323.32;;;6.97;65.95
63306;BME280;50735;52.060;1.248;2022-11-20T10:27:38;100321.44;;;7.15;66.24
63306;BME280;50735;52.060;1.248;2022-11-20T10:30:09;100315.48;;;7.04;65.88
63306;BME280;50735;52.060;1.248;2022-11-20T10:32:39;100320.98;;;6.42;66.24
63306;BME280;50735;52.060;1.248;2022-11-20T10:35:17;100326.37;;;6.62;66.24
63306;BME280;50735;52.060;1.248;2022-11-20T10:37:49;100329.21;;;6.63;66.66
63306;BME280;50735;52.060;1.248;2022-11-20T10:40:22;100332.51;;;6.58;66.41
63306;BME280;50735;52.060;1.248;2022-11-20T10:42:52;100329.67;;;6.73;66.64
63306;BME280;50735;52.060;1.248;2022-11-20T10:45:32;100322.98;;;6.44;66.46
63306;BME280;50735;52.060;1.248;2022-11-20T10:48:11;100326.57;;;6.79;66.21
63306;BME280;50735;52.060;1.248;2022-11-20T10:50:47;100323.50;;;6.64;67.06
63306;BME280;50735;52.060;1.248;2022-11-20T10:53:25;100316.18;;;6.82;66.29
63306;BME280;50735;52.060;1.248;2022-11-20T10:56:02;100313.76;;;7.25;65.34
63306;BME280;50735;52.060;1.248;2022-11-20T10:58:38;100312.29;;;7.30;65.04
63306;BME280;50735;52.060;1.248;2022-11-20T11:01:15;100309.91;;;7.04;65.11
63306;BME280;50735;52.060;1.248;2022-11-20T11:03:42;100300.74;;;7.40;63.66
63306;BME280;50735;52.060;1.248;2022-11-20T11:06:14;100298.06;;;7.39;64.57
63306;BME280;50735;52.060;1.248;2022-11-20T11:08:47;100299.12;;;6.96;64.45
63306;BME280;50735;52.060;1.248;2022-11-20T11:11:21;100293.73;;;7.72;63.76
63306;BME280;50735;52.060;1.248;2022-11-20T11:13:49;100292.33;;;8.80;62.40
63306;BME280;50735;52.060;1.248;2022-11-20T11:16:21;100289.38;;;9.13;60.67
63306;BME280;50735;52.060;1.248;2022-11-20T11:18:49;100281.87;;;9.04;58.97
63306;BME280;50735;52.060;1.248;2022-11-20T11:21:22;100280.24;;;9.17;58.99
63306;BME280;50735;52.060;1.248;2022-11-20T11:23:58;100278.68;;;9.42;58.47
63306;BME280;50735;52.060;1.248;2022-11-20T11:26:26;100277.64;;;9.29;57.69
63306;BME280;50735;52.060;1.248;2022-11-20T11:28:55;100275.37;;;9.40;58.20
63306;BME280;50735;52.060;1.248;2022-11-20T11:31:23;100269.39;;;8.99;58.26
63306;BME280;50735;52.060;1.248;2022-11-20T11:33:50;100266.65;;;9.38;58.96
63306;BME280;50735;52.060;1.248;2022-11-20T11:36:18;100264.15;;;9.38;58.08
63306;BME280;50735;52.060;1.248;2022-11-20T11:38:51;100258.60;;;10.01;57.49
63306;BME280;50735;52.060;1.248;2022-11-20T11:41:22;100246.92;;;10.31;57.42
63306;BME280;50735;52.060;1.248;2022-11-20T11:43:52;100239.38;;;10.97;54.13
63306;BME280;50735;52.060;1.248;2022-11-20T11:46:30;100234.62;;;11.82;54.07
63306;BME280;50735;52.060;1.248;2022-11-20T11:49:00;100230.79;;;11.97;52.69
63306;BME280;50735;52.060;1.248;2022-11-20T11:51:33;100233.11;;;12.20;52.01
63306;BME280;50735;52.060;1.248;2022-11-20T11:54:04;100230.90;;;12.03;51.13
63306;BME280;50735;52.060;1.248;2022-11-20T11:56:34;100228.56;;;12.32;50.12
63306;BME280;50735;52.060;1.248;2022-11-20T11:59:05;100228.82;;;12.12;48.88
63306;BME280;50735;52.060;1.248;2022-11-20T12:01:36;100226.96;;;11.83;50.05
63306;BME280;50735;52.060;1.248;2022-11-20T12:04:14;100225.47;;;12.10;50.54
63306;BME280;50735;52.060;1.248;2022-11-20T12:06:50;100225.07;;;11.73;50.94
63306;BME280;50735;52.060;1.248;2022-11-20T12:09:21;100229.78;;;11.32;51.42
63306;BME280;50735;52.060;1.248;2022-11-20T12:11:55;100234.29;;;11.28;52.25
63306;BME280;50735;52.060;1.248;2022-11-20T12:14:30;100236.56;;;11.30;52.01
63306;BME280;50735;52.060;1.248;2022-11-20T12:17:00;100240.86;;;10.31;52.74
63306;BME280;50735;52.060;1.248;2022-11-20T12:19:30;100243.31;;;10.26;54.20
63306;BME280;50735;52.060;1.248;2022-11-20T12:22:04;100251.85;;;10.30;52.81
63306;BME280;50735;52.060;1.248;2022-11-20T12:24:42;100250.69;;;10.20;53.70
63306;BME280;50735;52.060;1.248;2022-11-20T12:27:39;100254.85;;;10.04;52.63
63306;BME280;50735;52.060;1.248;2022-11-20T12:30:11;100257.68;;;10.12;52.53
63306;BME280;50735;52.060;1.248;2022-11-20T12:32:52;100261.59;;;10.19;52.36
63306;BME280;50735;52.060;1.248;2022-11-20T12:35:44;100264.21;;;9.37;54.47
63306;BME280;50735;52.060;1.248;2022-11-20T12:38:29;100265.12;;;9.52;53.26
63306;BME280;50735;52.060;1.248;2022-11-20T12:41:05;100267.07;;;9.55;53.29
63306;BME280;50735;52.060;1.248;2022-11-20T12:43:39;100266.78;;;9.88;54.90
63306;BME280;50735;52.060;1.248;2022-11-20T12:46:18;100257.66;;;10.48;53.25
63306;BME280;50735;52.060;1.248;2022-11-20T12:49:02;100265.04;;;10.38;52.09
63306;BME280;50735;52.060;1.248;2022-11-20T12:52:15;100265.02;;;10.81;50.83
63306;BME280;50735;52.060;1.248;2022-11-20T12:55:00;100264.02;;;11.63;51.43
63306;BME280;50735;52.060;1.248;2022-11-20T12:57:35;100258.15;;;11.49;49.41
63306;BME280;50735;52.060;1.248;2022-11-20T13:00:11;100260.08;;;12.21;49.20
63306;BME280;50735;52.060;1.248;2022-11-20T13:02:58;100256.80;;;12.02;49.29
63306;BME280;50735;52.060;1.248;2022-11-20T13:05:32;100257.60;;;12.53;51.04
63306;BME280;50735;52.060;1.248;2022-11-20T13:08:03;100257.37;;;12.03;46.36
63306;BME280;50735;52.060;1.248;2022-11-20T13:10:37;100259.72;;;11.15;49.26
63306;BME280;50735;52.060;1.248;2022-11-20T13:13:12;100264.12;;;12.02;48.48
63306;BME280;50735;52.060;1.248;2022-11-20T13:15:50;100266.67;;;12.27;47.01